createdAt,value
2023-10-10T00:00:04.681Z,9.68
2023-10-10T00:05:20.924Z,10.13
2023-10-10T00:10:35.884Z,12.15
2023-10-10T00:15:50.652Z,9.60
2023-10-10T00:21:05.972Z,10.27
2023-10-10T00:26:21.183Z,10.63
2023-10-10T00:31:36.843Z,8.85
2023-10-10T00:36:51.786Z,8.43
2023-10-10T00:42:06.646Z,7.38
2023-10-10T00:47:21.933Z,10.23
2023-10-10T00:52:37.815Z,6.50
2023-10-10T00:57:52.820Z,8.23
2023-10-10T01:03:08.010Z,7.53
2023-10-10T01:08:23.960Z,8.60
2023-10-10T01:13:39.549Z,8.65
2023-10-10T01:18:54.847Z,10.13
2023-10-10T01:24:09.876Z,9.50
2023-10-10T01:29:24.954Z,11.25
2023-10-10T01:34:39.848Z,12.60
2023-10-10T01:39:54.921Z,9.15
2023-10-10T01:45:10.142Z,7.38
2023-10-10T01:50:26.027Z,7.70
2023-10-10T01:55:42.874Z,9.77
2023-10-10T02:00:57.949Z,11.65
2023-10-10T02:06:13.136Z,10.95
2023-10-10T02:11:28.906Z,23.90
2023-10-10T02:16:44.103Z,26.75
2023-10-10T02:21:59.813Z,11.00
2023-10-10T02:27:16.211Z,8.70
2023-10-10T02:32:31.904Z,8.32
2023-10-10T02:37:46.934Z,11.35
2023-10-10T02:43:02.077Z,11.75
2023-10-10T02:48:17.679Z,9.73
2023-10-10T02:53:33.004Z,8.25
2023-10-10T02:58:48.885Z,7.75
2023-10-10T03:04:04.009Z,7.90
2023-10-10T03:09:20.058Z,9.60
2023-10-10T03:14:36.178Z,9.30
2023-10-10T03:19:52.665Z,7.10
2023-10-10T03:25:07.679Z,10.55
2023-10-10T03:30:22.919Z,34.47
2023-10-10T03:35:37.946Z,19.50
2023-10-10T03:40:52.923Z,19.52
2023-10-10T03:46:08.942Z,11.13
2023-10-10T03:51:23.815Z,9.38
2023-10-10T03:56:38.920Z,9.48
2023-10-10T04:01:54.017Z,12.65
2023-10-10T04:07:09.864Z,16.23
2023-10-10T04:12:25.028Z,16.65
2023-10-10T04:17:41.119Z,17.08
2023-10-10T04:22:56.815Z,17.27
2023-10-10T04:28:11.853Z,16.30
2023-10-10T04:33:26.953Z,15.18
2023-10-10T04:38:41.943Z,16.83
2023-10-10T04:43:56.956Z,31.63
2023-10-10T04:49:11.915Z,54.13
2023-10-10T04:54:26.856Z,87.68
2023-10-10T04:59:41.882Z,82.22
2023-10-10T05:04:56.944Z,76.97
2023-10-10T05:10:11.855Z,73.07
2023-10-10T05:15:26.820Z,64.70
2023-10-10T05:20:42.101Z,61.60
2023-10-10T05:25:57.884Z,59.90
2023-10-10T05:31:12.931Z,46.92
2023-10-10T05:36:27.889Z,42.60
2023-10-10T05:41:43.067Z,42.08
2023-10-10T05:46:58.991Z,40.13
2023-10-10T05:52:14.916Z,27.35
2023-10-10T05:57:29.854Z,32.03
2023-10-10T06:02:44.854Z,34.05
2023-10-10T06:08:00.237Z,35.20
2023-10-10T06:13:15.930Z,26.67
2023-10-10T06:18:30.969Z,26.50
2023-10-10T06:23:46.558Z,32.13
2023-10-10T06:29:03.378Z,29.88
2023-10-10T06:34:19.005Z,26.10
2023-10-10T06:39:34.073Z,23.85
2023-10-10T06:44:49.992Z,27.90
2023-10-10T06:50:04.869Z,25.83
2023-10-10T06:55:19.920Z,25.55
2023-10-10T07:00:34.889Z,24.30
2023-10-10T07:05:49.972Z,23.80
2023-10-10T07:11:05.169Z,27.55
2023-10-10T07:16:20.970Z,20.20
2023-10-10T07:21:35.936Z,21.38
2023-10-10T07:26:51.007Z,21.02
2023-10-10T07:32:07.113Z,18.55
2023-10-10T07:37:22.895Z,16.25
2023-10-10T07:42:37.848Z,19.08
2023-10-10T07:47:53.080Z,14.50
2023-10-10T07:53:08.977Z,24.35
2023-10-10T07:58:31.083Z,16.80
2023-10-10T08:03:56.955Z,17.85
2023-10-10T08:09:11.785Z,17.83
2023-10-10T08:14:26.955Z,18.65
2023-10-10T08:19:42.892Z,18.17
2023-10-10T08:24:57.867Z,18.88
2023-10-10T08:30:12.938Z,13.07
2023-10-10T08:35:28.028Z,14.27
2023-10-10T08:40:42.820Z,14.70
2023-10-10T08:45:57.991Z,16.13
2023-10-10T08:51:12.891Z,13.38
2023-10-10T08:56:27.900Z,14.38
2023-10-10T09:01:42.992Z,10.38
2023-10-10T09:06:57.916Z,12.38
2023-10-10T09:12:13.962Z,12.38
2023-10-10T09:17:28.982Z,14.25
2023-10-10T09:22:43.955Z,10.48
2023-10-10T09:27:59.211Z,10.93
2023-10-10T09:33:15.125Z,15.25
2023-10-10T09:38:31.026Z,11.55
2023-10-10T09:43:45.923Z,7.82
2023-10-10T09:49:00.887Z,8.05
2023-10-10T09:54:15.820Z,7.13
2023-10-10T09:59:30.959Z,7.95
2023-10-10T10:04:46.030Z,9.80
2023-10-10T10:10:02.214Z,9.13
2023-10-10T10:15:17.794Z,8.88
2023-10-10T10:20:32.899Z,8.25
2023-10-10T10:25:50.986Z,12.10
2023-10-10T10:31:06.141Z,7.90
2023-10-10T10:36:21.937Z,7.18
2023-10-10T10:41:36.934Z,6.53
2023-10-10T10:46:51.951Z,11.70
2023-10-10T10:52:08.566Z,7.65
2023-10-10T10:57:32.544Z,8.30
2023-10-10T11:02:55.032Z,7.10
2023-10-10T11:08:09.908Z,6.80
2023-10-10T11:13:25.218Z,8.30
2023-10-10T11:18:41.062Z,9.70
2023-10-10T11:23:56.106Z,9.50
2023-10-10T11:29:11.937Z,8.00
2023-10-10T11:34:26.894Z,7.10
2023-10-10T11:39:41.910Z,6.97
2023-10-10T11:44:57.006Z,7.43
2023-10-10T11:50:11.930Z,8.15
2023-10-10T11:55:26.897Z,12.27
2023-10-10T12:00:41.911Z,13.63
2023-10-10T12:05:57.217Z,9.30
2023-10-10T12:11:14.065Z,9.88
2023-10-10T12:16:30.243Z,10.32
2023-10-10T12:21:45.979Z,15.68
2023-10-10T12:27:00.648Z,13.57
2023-10-10T12:32:53.898Z,11.60
2023-10-10T12:38:08.984Z,13.77
2023-10-10T12:43:23.958Z,57.08
2023-10-10T12:48:38.911Z,49.67
2023-10-10T12:53:55.842Z,25.90
2023-10-10T13:04:34.050Z,20.70
2023-10-10T13:09:49.965Z,17.20
2023-10-10T13:15:05.006Z,15.30
2023-10-10T13:20:20.109Z,18.35
2023-10-10T13:25:35.948Z,13.90
2023-10-10T13:30:51.013Z,20.33
2023-10-10T13:36:07.935Z,14.73
2023-10-10T13:41:23.187Z,13.85
2023-10-10T13:46:39.137Z,21.52
2023-10-10T13:51:54.938Z,12.20
2023-10-10T13:57:09.808Z,10.88
2023-10-10T14:02:26.213Z,13.52
2023-10-10T14:07:43.304Z,15.80
2023-10-10T14:13:09.970Z,11.52
2023-10-10T14:18:33.398Z,9.80
2023-10-10T14:23:49.913Z,15.60
2023-10-10T14:29:05.995Z,14.73
2023-10-10T14:34:21.623Z,15.10
2023-10-10T14:39:36.992Z,17.52
2023-10-10T14:44:51.789Z,7.57
2023-10-10T14:50:07.052Z,13.63
2023-10-10T14:55:23.044Z,11.73
2023-10-10T15:00:40.637Z,14.77
2023-10-10T15:05:58.032Z,11.57
2023-10-10T15:11:13.226Z,9.57
2023-10-10T15:16:29.062Z,9.05
2023-10-10T15:21:43.935Z,13.35
2023-10-10T15:26:58.978Z,7.80
2023-10-10T15:32:14.980Z,9.00
2023-10-10T15:37:29.864Z,16.00
2023-10-10T15:42:44.999Z,32.65
2023-10-10T15:48:00.231Z,35.08
2023-10-10T15:53:15.950Z,35.28
2023-10-10T15:58:31.201Z,24.10
2023-10-10T16:03:47.119Z,22.00
2023-10-10T16:09:02.979Z,18.15
2023-10-10T16:14:17.964Z,18.52
2023-10-10T16:19:32.924Z,17.67
2023-10-10T16:24:48.295Z,20.50
2023-10-10T16:30:03.954Z,14.77
2023-10-10T16:35:18.723Z,12.15
2023-10-10T16:40:33.920Z,13.50
2023-10-10T16:45:48.965Z,14.68
2023-10-10T16:51:03.953Z,10.43
2023-10-10T16:56:19.087Z,15.32
2023-10-10T17:01:33.944Z,12.77
2023-10-10T17:06:49.245Z,13.18
2023-10-10T17:12:05.059Z,15.05
2023-10-10T17:17:19.798Z,9.38
2023-10-10T17:22:35.039Z,9.70
2023-10-10T17:27:49.908Z,11.65
2023-10-10T17:33:05.095Z,13.55
2023-10-10T17:38:20.998Z,9.18
2023-10-10T17:43:36.363Z,11.27
2023-10-10T17:48:52.347Z,9.93
2023-10-10T17:54:08.330Z,9.10
2023-10-10T17:59:23.758Z,11.57
2023-10-10T18:04:39.165Z,10.02
2023-10-10T18:09:55.203Z,9.35
2023-10-10T18:15:11.075Z,8.85
2023-10-10T18:20:26.023Z,9.13
2023-10-10T18:25:41.025Z,6.72
2023-10-10T18:30:55.983Z,8.10
2023-10-10T18:36:11.010Z,9.00
2023-10-10T18:41:26.291Z,10.30
2023-10-10T18:46:42.496Z,11.50
2023-10-10T18:51:58.940Z,9.93
2023-10-10T18:57:13.998Z,10.40
2023-10-10T19:02:30.275Z,15.43
2023-10-10T19:07:46.981Z,8.57
2023-10-10T19:13:01.826Z,7.03
2023-10-10T19:18:17.748Z,15.27
2023-10-10T19:23:33.972Z,13.20
2023-10-10T19:28:48.996Z,10.65
2023-10-10T19:34:04.007Z,14.98
2023-10-10T19:39:19.091Z,10.35
2023-10-10T19:44:33.933Z,11.35
2023-10-10T19:49:48.901Z,12.88
2023-10-10T19:55:17.060Z,8.98
2023-10-10T20:00:37.442Z,9.88
2023-10-10T20:05:53.063Z,9.25
2023-10-10T20:11:08.733Z,11.70
2023-10-10T20:16:24.272Z,8.48
2023-10-10T20:21:40.955Z,7.57
2023-10-10T20:26:56.098Z,9.38
2023-10-10T20:32:10.915Z,10.35
2023-10-10T20:37:25.967Z,8.30
2023-10-10T20:42:40.986Z,9.23
2023-10-10T20:47:56.149Z,8.85
2023-10-10T20:53:11.948Z,9.10
2023-10-10T20:58:27.329Z,7.18
2023-10-10T21:03:42.945Z,6.72
2023-10-10T21:09:00.425Z,6.55
2023-10-10T21:14:17.098Z,8.55
2023-10-10T21:19:33.029Z,9.50
2023-10-10T21:24:47.905Z,6.82
2023-10-10T21:30:03.482Z,11.10
2023-10-10T21:35:19.979Z,6.25
2023-10-10T21:40:34.953Z,8.02
2023-10-10T21:45:49.931Z,24.45
2023-10-10T21:51:07.928Z,8.80
2023-10-10T21:56:24.039Z,7.28
2023-10-10T22:01:38.940Z,20.48
2023-10-10T22:06:54.002Z,7.07
2023-10-10T22:12:09.028Z,15.88
2023-10-10T22:17:24.494Z,12.95
2023-10-10T22:22:41.046Z,6.50
2023-10-10T22:27:56.754Z,6.20
2023-10-10T22:33:12.598Z,6.75
2023-10-10T22:38:28.238Z,6.93
2023-10-10T22:43:44.009Z,6.55
2023-10-10T22:48:59.439Z,11.50
2023-10-10T22:54:15.935Z,8.60
2023-10-10T22:59:31.021Z,8.48
2023-10-10T23:04:45.941Z,7.10
2023-10-10T23:10:01.062Z,5.22
2023-10-10T23:15:16.010Z,6.43
2023-10-10T23:20:31.374Z,8.07
2023-10-10T23:25:47.015Z,7.82
2023-10-10T23:31:02.159Z,6.18
2023-10-10T23:36:18.076Z,7.40
2023-10-10T23:41:32.963Z,6.03
2023-10-10T23:46:48.187Z,10.32
2023-10-10T23:52:03.985Z,10.85
2023-10-10T23:57:18.946Z,8.30
